createdAt,value
2018-08-23T00:00:07.913Z,37.90
2018-08-23T00:02:38.025Z,50.47
2018-08-23T00:16:56.439Z,57.63
2018-08-23T00:19:31.189Z,54.20
2018-08-23T00:27:46.489Z,38.03
2018-08-23T00:30:16.707Z,40.13
2018-08-23T00:38:32.988Z,37.57
2018-08-23T00:46:48.987Z,41.33
2018-08-23T00:49:19.441Z,40.73
2018-08-23T00:51:58.217Z,43.63
2018-08-23T00:57:08.272Z,40.63
2018-08-23T00:59:38.190Z,40.93
2018-08-23T01:02:10.016Z,41.87
2018-08-23T01:17:41.016Z,43.43
2018-08-23T01:48:11.080Z,59.30
2018-08-23T01:50:41.694Z,67.20
2018-08-23T01:53:13.269Z,67.13
2018-08-23T01:55:44.080Z,62.47
2018-08-23T02:06:52.312Z,52.60
2018-08-23T02:09:34.615Z,53.83
2018-08-23T02:12:04.862Z,50.33
2018-08-23T02:14:39.855Z,48.47
2018-08-23T02:20:21.443Z,46.37
2018-08-23T02:22:52.079Z,51.10
2018-08-23T02:25:22.046Z,53.03
2018-08-23T02:28:45.259Z,53.47
2018-08-23T02:31:15.690Z,52.33
2018-08-23T02:33:45.882Z,50.07
2018-08-23T02:36:17.192Z,54.17
2018-08-23T02:38:50.707Z,50.47
2018-08-23T02:41:20.747Z,50.77
2018-08-23T02:46:43.323Z,50.70
2018-08-23T02:54:58.581Z,52.90
2018-08-23T02:57:28.691Z,58.20
2018-08-23T03:00:09.209Z,55.23
2018-08-23T03:02:39.295Z,49.37
2018-08-23T03:05:22.361Z,50.27
2018-08-23T03:08:02.951Z,48.07
2018-08-23T03:19:12.448Z,61.43
2018-08-23T03:24:35.708Z,61.13
2018-08-23T03:29:59.116Z,55.50
2018-08-23T03:32:29.966Z,61.00
2018-08-23T03:40:46.099Z,61.80
2018-08-23T03:43:17.695Z,55.13
2018-08-23T03:45:47.730Z,60.33
2018-08-23T03:54:03.994Z,58.17
2018-08-23T03:56:34.287Z,64.10
2018-08-23T04:07:52.466Z,60.70
2018-08-23T04:10:25.007Z,71.37
2018-08-23T04:12:57.681Z,74.30
2018-08-23T04:15:29.504Z,65.67
2018-08-23T04:18:13.687Z,57.37
2018-08-23T04:23:36.346Z,70.60
2018-08-23T04:47:58.715Z,64.27
2018-08-23T04:50:29.595Z,88.67
2018-08-23T04:58:58.548Z,98.33
2018-08-23T05:04:20.989Z,92.30
2018-08-23T05:06:52.252Z,79.70
2018-08-23T05:09:22.675Z,85.90
2018-08-23T05:11:52.903Z,101.87
2018-08-23T05:14:37.199Z,109.90
2018-08-23T05:17:08.530Z,96.17
2018-08-23T05:19:38.777Z,110.53
2018-08-23T05:22:08.834Z,98.10
2018-08-23T05:24:38.696Z,108.73
2018-08-23T05:27:09.500Z,92.97
2018-08-23T05:29:39.674Z,95.90
2018-08-23T05:32:10.238Z,90.13
2018-08-23T05:34:40.558Z,78.00
2018-08-23T05:37:11.047Z,85.30
2018-08-23T05:39:51.259Z,85.97
2018-08-23T05:42:33.596Z,78.97
2018-08-23T05:45:03.109Z,84.90
2018-08-23T05:47:33.363Z,79.67
2018-08-23T05:50:03.787Z,78.80
2018-08-23T05:52:33.986Z,74.40
2018-08-23T05:55:04.322Z,68.37
2018-08-23T05:57:34.076Z,73.00
2018-08-23T06:00:04.413Z,72.70
2018-08-23T06:02:33.842Z,73.10
2018-08-23T06:05:03.678Z,72.30
2018-08-23T06:07:33.311Z,70.37
2018-08-23T06:10:02.859Z,71.53
2018-08-23T06:12:33.359Z,75.93
2018-08-23T06:15:03.199Z,67.67
2018-08-23T06:17:33.722Z,72.83
2018-08-23T06:20:04.491Z,65.07
2018-08-23T06:22:34.106Z,68.50
2018-08-23T06:25:03.562Z,65.50
2018-08-23T06:27:34.279Z,67.33
2018-08-23T06:30:03.763Z,68.93
2018-08-23T06:32:34.222Z,72.80
2018-08-23T06:35:03.826Z,68.57
2018-08-23T06:37:35.144Z,72.63
2018-08-23T06:40:04.804Z,77.73
2018-08-23T06:42:45.613Z,78.37
2018-08-23T06:45:15.954Z,78.93
2018-08-23T06:47:49.962Z,76.43
2018-08-23T06:50:21.411Z,77.03
2018-08-23T06:52:51.421Z,80.77
2018-08-23T06:55:25.859Z,75.00
2018-08-23T06:58:00.430Z,76.70
2018-08-23T07:00:30.878Z,80.87
2018-08-23T07:03:00.965Z,74.00
2018-08-23T07:05:31.321Z,77.03
2018-08-23T07:08:01.372Z,80.60
2018-08-23T07:10:31.414Z,74.43
2018-08-23T07:13:01.597Z,73.60
2018-08-23T07:15:31.206Z,71.70
2018-08-23T07:18:02.398Z,72.53
2018-08-23T07:20:32.224Z,69.47
2018-08-23T07:23:02.150Z,75.27
2018-08-23T07:25:35.889Z,68.87
2018-08-23T07:28:05.748Z,70.17
2018-08-23T07:30:41.054Z,66.77
2018-08-23T07:33:11.242Z,66.07
2018-08-23T07:35:41.028Z,70.13
2018-08-23T07:38:10.898Z,70.03
2018-08-23T07:40:40.897Z,64.17
2018-08-23T07:43:10.874Z,64.83
2018-08-23T07:45:40.440Z,66.77
2018-08-23T07:48:10.076Z,66.13
2018-08-23T07:50:40.884Z,66.93
2018-08-23T07:53:10.783Z,68.63
2018-08-23T07:55:41.884Z,65.00
2018-08-23T07:58:12.042Z,65.37
2018-08-23T08:00:43.379Z,66.97
2018-08-23T08:03:14.090Z,65.83
2018-08-23T08:05:46.514Z,69.83
2018-08-23T08:08:16.292Z,65.93
2018-08-23T08:10:46.782Z,63.73
2018-08-23T08:13:16.619Z,63.97
2018-08-23T08:15:46.857Z,63.97
2018-08-23T08:18:23.758Z,64.17
2018-08-23T08:21:03.032Z,60.97
2018-08-23T08:23:34.407Z,58.13
2018-08-23T08:26:04.180Z,59.33
2018-08-23T08:28:33.627Z,55.70
2018-08-23T08:31:03.257Z,54.00
2018-08-23T08:33:37.136Z,53.37
2018-08-23T08:36:07.649Z,56.93
2018-08-23T08:38:37.912Z,55.80
2018-08-23T08:41:07.671Z,50.47
2018-08-23T08:43:38.233Z,53.30
2018-08-23T08:46:08.032Z,49.20
2018-08-23T08:48:37.584Z,49.30
2018-08-23T08:51:19.674Z,48.00
2018-08-23T08:53:50.202Z,49.77
2018-08-23T08:56:27.520Z,49.47
2018-08-23T08:58:57.425Z,44.97
2018-08-23T09:01:27.011Z,45.30
2018-08-23T09:03:56.692Z,47.47
2018-08-23T09:06:31.912Z,51.07
2018-08-23T09:09:09.021Z,50.73
2018-08-23T09:11:38.535Z,45.73
2018-08-23T09:14:08.947Z,43.10
2018-08-23T09:16:38.346Z,39.50
2018-08-23T09:19:08.651Z,33.93
2018-08-23T09:21:38.477Z,32.67
2018-08-23T09:24:23.743Z,35.33
2018-08-23T09:26:53.981Z,35.60
2018-08-23T09:29:37.062Z,34.77
2018-08-23T09:32:20.045Z,35.60
2018-08-23T09:34:54.191Z,30.40
2018-08-23T09:37:23.836Z,27.75
2018-08-23T09:39:53.556Z,27.50
2018-08-23T09:42:23.152Z,25.30
2018-08-23T09:45:06.962Z,19.32
2018-08-23T09:47:36.962Z,21.40
2018-08-23T09:50:06.949Z,22.50
2018-08-23T09:52:46.835Z,20.35
2018-08-23T09:55:18.701Z,15.63
2018-08-23T09:57:49.249Z,14.80
2018-08-23T10:00:24.156Z,18.12
2018-08-23T10:02:59.674Z,19.17
2018-08-23T10:05:34.952Z,17.12
2018-08-23T10:08:10.221Z,16.85
2018-08-23T10:10:45.048Z,15.58
2018-08-23T10:13:20.306Z,15.68
2018-08-23T10:15:55.847Z,18.52
2018-08-23T10:18:30.520Z,11.63
2018-08-23T10:21:01.225Z,13.35
2018-08-23T10:23:31.140Z,12.50
2018-08-23T10:26:05.046Z,13.55
2018-08-23T10:28:40.207Z,15.53
2018-08-23T10:31:10.106Z,12.53
2018-08-23T10:33:39.681Z,9.80
2018-08-23T10:36:09.789Z,10.60
2018-08-23T10:38:39.403Z,14.58
2018-08-23T10:41:09.001Z,16.45
2018-08-23T10:43:46.486Z,14.35
2018-08-23T10:46:16.181Z,13.18
2018-08-23T10:48:46.096Z,11.45
2018-08-23T10:51:16.204Z,14.33
2018-08-23T10:53:47.503Z,12.28
2018-08-23T10:56:17.540Z,14.35
2018-08-23T10:58:46.306Z,13.62
2018-08-23T11:01:16.079Z,16.67
2018-08-23T11:03:45.947Z,15.18
2018-08-23T11:06:14.772Z,14.00
2018-08-23T11:08:48.510Z,15.65
2018-08-23T11:11:23.486Z,14.58
2018-08-23T11:13:53.591Z,17.17
2018-08-23T11:16:28.970Z,19.37
2018-08-23T11:19:03.630Z,17.12
2018-08-23T11:21:33.599Z,18.10
2018-08-23T11:24:03.454Z,13.93
2018-08-23T11:26:33.005Z,15.15
2018-08-23T11:29:03.182Z,20.20
2018-08-23T11:31:32.930Z,21.15
2018-08-23T11:34:02.645Z,25.43
2018-08-23T11:36:32.965Z,26.05
2018-08-23T11:39:02.791Z,26.00
2018-08-23T11:41:32.303Z,19.20
2018-08-23T11:44:01.492Z,16.93
2018-08-23T11:46:32.700Z,16.90
2018-08-23T11:49:02.913Z,19.25
2018-08-23T11:51:32.608Z,17.30
2018-08-23T11:54:02.617Z,16.75
2018-08-23T11:56:32.327Z,14.18
2018-08-23T11:59:02.571Z,15.80
2018-08-23T12:01:32.377Z,22.95
2018-08-23T12:04:02.177Z,27.02
2018-08-23T12:06:31.597Z,29.18
2018-08-23T12:09:03.766Z,33.40
2018-08-23T12:11:33.272Z,23.80
2018-08-23T12:14:02.842Z,24.07
2018-08-23T12:16:32.275Z,25.80
2018-08-23T12:19:01.510Z,30.05
2018-08-23T12:21:30.714Z,26.10
2018-08-23T12:24:00.772Z,23.77
2018-08-23T12:26:30.475Z,26.23
2018-08-23T12:29:06.756Z,25.00
2018-08-23T12:31:36.323Z,28.00
2018-08-23T12:34:08.015Z,28.98
2018-08-23T12:36:42.966Z,32.63
2018-08-23T12:39:18.077Z,28.35
2018-08-23T12:41:52.683Z,27.17
2018-08-23T12:44:22.646Z,19.62
2018-08-23T12:46:56.021Z,23.22
2018-08-23T12:49:25.741Z,24.77
2018-08-23T12:51:55.271Z,21.37
2018-08-23T12:54:24.894Z,20.90
2018-08-23T12:56:54.548Z,24.07
2018-08-23T12:59:24.240Z,24.43
2018-08-23T13:01:55.898Z,27.50
2018-08-23T13:04:25.686Z,22.90
2018-08-23T13:06:55.297Z,19.73
2018-08-23T13:09:24.994Z,23.12
2018-08-23T13:11:53.927Z,22.35
2018-08-23T13:14:23.409Z,21.20
2018-08-23T13:16:52.118Z,20.80
2018-08-23T13:19:22.156Z,21.15
2018-08-23T13:22:03.172Z,23.22
2018-08-23T13:24:34.188Z,22.25
2018-08-23T13:38:34.446Z,16.82
2018-08-23T13:41:06.694Z,17.77
2018-08-23T13:43:37.152Z,18.45
2018-08-23T13:46:07.256Z,15.35
2018-08-23T13:51:50.361Z,12.50
2018-08-23T13:54:19.994Z,10.28
2018-08-23T14:08:19.513Z,13.62
2018-08-23T14:10:48.649Z,13.80
2018-08-23T14:30:49.218Z,10.30
2018-08-23T14:33:19.122Z,10.80
2018-08-23T14:58:52.317Z,24.20
2018-08-23T15:30:18.488Z,15.45
2018-08-23T15:32:47.357Z,15.65
2018-08-23T15:43:57.072Z,15.55
2018-08-23T15:46:38.675Z,12.25
2018-08-23T15:49:09.610Z,14.43
2018-08-23T16:09:03.124Z,10.10
2018-08-23T16:11:33.737Z,8.38
2018-08-23T16:42:51.171Z,9.43
2018-08-23T18:30:11.015Z,7.40
2018-08-23T18:58:38.828Z,4.80
2018-08-23T19:30:00.688Z,7.47
2018-08-23T19:35:34.164Z,7.90
2018-08-23T20:06:54.702Z,7.27
2018-08-23T20:09:32.226Z,5.43
2018-08-23T20:12:02.332Z,4.00
2018-08-23T20:34:48.286Z,6.87
2018-08-23T20:40:11.630Z,4.43
2018-08-23T20:42:41.707Z,3.37
2018-08-23T21:14:01.190Z,3.13
2018-08-23T21:36:43.104Z,6.30
2018-08-23T22:05:08.717Z,3.40
2018-08-23T22:36:27.943Z,3.37
2018-08-23T23:05:08.682Z,3.87
2018-08-23T23:36:26.309Z,8.03
